x

New London Ledge Ct - Ledge Light Weather Station (ldlc3) Weather Station

6:25pm - Fri 27th Mar 2015 All times are EDT. -4 hours from GMT.

  • Wind
    6mph, 7mph gusts
  • 空気 Temp 44°f
  • Sea Pressure 1005.8mb
  • New London Ledge Ct - Ledge Light Weather Station
  • New London Ledge Ct - Ledge Light Weather Station

More Historic Weather Station data

Upgrade to MSW Pro to gain access to the past 30 days of data for over 8000 Wavebouys and Weather Stations around the globe.

Join Pro

Comparision Forecast

View Surf forecast
   
Fri 03/27 6:25pm 6 7 mph 1005.8mb 44f
6:10pm 5 7 mph 1006mb 44f
5:55pm 6 7 mph 1005.8mb 44f
5:40pm 8 10 mph 1005.8mb 44f
5:25pm 9 11 mph 1005.2mb 44f
5:10pm 10 13 mph 1004.7mb 44f
4:55pm 10 11 mph 1005mb 44f
4:40pm 9 11 mph 1005.2mb 44f
4:25pm 8 11 mph 1005.3mb 44f
4:10pm 6 7 mph 1005.2mb 44f
3:55pm 8 10 mph 1005.1mb 43f
3:40pm 9 10 mph 1005.3mb 43f
3:25pm 11
mph
1004.8mb 43f
3:10pm 9 10 mph 1004.9mb 43f
2:55pm 10 11 mph 1005.1mb 43f
2:40pm 9 10 mph 1004.8mb 43f
2:25pm 7 9 mph 1004.8mb 43f
2:10pm 9 11 mph 1004.9mb 43f
1:55pm 11 13 mph 1004.7mb 43f
1:40pm 11 14 mph 1004.9mb 42f
1:25pm 11 13 mph 1005.1mb 42f
1:10pm 11 13 mph 1005.2mb 42f
12:55pm 13 14 mph 1005.2mb 42f
12:40pm 14 16 mph 1005.1mb 42f
12:25pm 14 15 mph 1004.8mb 42f
12:10pm 11 14 mph 1005.2mb 41f
11:55am 14 15 mph 1005.1mb 42f
11:40am 11 13 mph 1005.4mb 41f
11:25am 9 11 mph 1005.6mb 41f
11:10am 6 8 mph 1005.8mb 41f
10:55am 9 13 mph 1005.6mb 41f
10:40am 10 11 mph 1005.8mb 41f
10:25am 10 11 mph 1005.8mb 41f
10:10am 10 11 mph 1005.9mb 41f
9:55am 15 18 mph 1005.5mb 41f
9:40am 17 21 mph 1005.1mb 41f
9:25am 14 16 mph 1005.7mb 40f
9:10am 16 18 mph 1005.6mb 40f
8:55am 16 18 mph 1005.8mb 40f
8:40am 15 17 mph 1005.3mb 40f
8:25am 17 21 mph 1005.5mb 40f
8:10am 20 22 mph 1005.7mb 40f
7:55am 21 25 mph 1005.8mb 41f
7:40am 22 24 mph 1005.2mb 41f
7:25am 22 24 mph 1005.1mb 41f
7:10am 21 24 mph 1005.6mb 41f
6:55am 20 22 mph 1004.9mb 42f
6:40am 18 23 mph 1005.1mb 42f
6:25am 18 21 mph 1004.7mb 42f
6:10am 17 18 mph 1004.6mb 42f
5:55am 15 17 mph 1004mb 42f
5:40am 15 16 mph 1003.9mb 42f
5:25am 16 18 mph 1003.1mb 43f
5:10am 17 21 mph 1003.5mb 43f
4:55am 14 16 mph 1003.4mb 43f
4:40am 15 17 mph 1003.1mb 43f
4:25am 13 14 mph 1003.3mb 43f
4:10am 10 13 mph 1003mb 44f
3:55am 10 11 mph 1003.7mb 44f
3:40am 13 15 mph 1003.4mb 44f
3:25am 9 10 mph 1003.7mb 45f
3:10am 14 15 mph 1003.1mb 45f
2:55am 11 13 mph 1002.9mb 45f
2:40am 13 17 mph 1002.7mb 45f
2:25am 13 14 mph 1002.9mb 45f
2:10am 15 16 mph 1002.8mb 45f
1:55am 11 14 mph 1002.7mb 46f
1:40am 11 17 mph 1002.1mb 46f
1:25am 11 16 mph 1001.9mb 46f
1:10am 17 21 mph 1001.9mb 47f
Thu 03/26 7:55pm 17 23 mph 1003.9mb 48f
7:40pm 22 26 mph 1004mb 48f
7:25pm 23 25 mph 1004mb 48f
7:10pm 30 33 mph 1003.7mb 50f
6:55pm 14 16 mph 1004.4mb 48f
6:40pm 16 20 mph 1004.2mb 46f
6:25pm 25 29 mph 1004.2mb 48f
6:10pm 28 31 mph 1004.3mb 48f
5:55pm 31 34 mph 1004.1mb 48f
5:40pm 32 36 mph 1004.2mb 49f
5:25pm 25 31 mph 1004.5mb 49f
5:10pm 24 28 mph 1004.7mb 47f
4:55pm 18 21 mph 1005.2mb 46f
4:40pm 17 21 mph 1005.4mb 47f
4:25pm 7 10 mph 1006mb 46f
4:10pm 7 9 mph 1006.4mb 45f
3:55pm 13 15 mph 1006.7mb 46f
3:40pm 16 18 mph 1007mb 45f
3:25pm 20 22 mph 1007mb 46f
3:10pm 7 10 mph 1007.6mb 44f
2:55pm 5 7 mph 1008.1mb 42f
2:40pm 5 7 mph 1008.6mb 43f
2:25pm 5 6 mph 1009mb 41f
2:10pm 8 9 mph 1009.4mb 41f
1:55pm 13 17 mph 1010.1mb 40f
1:40pm 11 13 mph 1009.8mb 40f
1:25pm 8 9 mph 1010.2mb 40f
1:10pm 5 6 mph 1010.7mb 40f
12:55pm 6
mph
1011mb 41f
12:40pm 6 7 mph 1011.5mb 41f
12:25pm 5 6 mph 1011.9mb 42f
12:10pm 3 5 mph 1012.1mb 42f
11:55am 3
mph
1012.5mb 42f
11:40am 5
mph
1012.7mb 41f
11:25am 5 6 mph 1013.2mb 40f
11:10am 5 6 mph 1013.9mb 42f
10:55am 6 7 mph 1014.1mb 42f
10:40am 3 5 mph 1014.1mb 41f
10:25am 2 5 mph 1014.1mb 43f
10:10am 5
mph
1014.5mb 42f
9:55am 5 6 mph 1014.7mb 41f
9:40am 2 5 mph 1014.9mb 41f
9:25am 8 9 mph 1014.6mb 42f
9:10am 7
mph
1014.9mb 41f
8:55am 7
mph
1014.9mb 39f
8:40am 6 7 mph 1014.8mb 39f
8:25am 8
mph
1015.1mb 39f
8:10am 7 8 mph 1015.1mb 39f
7:55am 6 7 mph 1015.1mb 40f
7:40am 5 6 mph 1015.2mb 40f
7:25am 5
mph
1015.7mb 39f
7:10am 2 3 mph 1015.7mb 39f
6:55am 1 2 mph 1015.7mb 39f
6:40am 6 7 mph 1015.9mb 39f
6:25am 8
mph
1015.8mb 40f
6:10am 6
mph
1015.6mb 40f
5:55am 6 7 mph 1015.7mb 40f
5:40am 3 5 mph 1015.8mb 40f
5:25am 2 3 mph 1015.7mb 40f
5:10am 2 3 mph 1016mb 41f
4:55am 3 5 mph 1016mb 41f
4:40am 5 6 mph 1016mb 41f
4:25am 5 6 mph 1016.3mb 41f
4:10am 3 5 mph 1016.5mb 41f
3:55am 6 7 mph 1016.5mb 41f
3:40am 6
mph
1016.7mb 41f
3:25am 7
mph
1016.8mb 40f
3:10am 5 6 mph 1017.3mb 40f
2:55am 5
mph
1017.5mb 40f
2:40am 5 6 mph 1017.9mb 40f
2:25am 6
mph
1018.4mb 40f
2:10am 6 7 mph 1018.5mb 40f
1:55am 6 7 mph 1018.7mb 40f
1:40am 7 8 mph 1019mb 40f
1:25am 7
mph
1019.5mb 40f
1:10am 7 8 mph 1019.6mb 40f
Wed 03/25 7:55pm 7 8 mph 1024.4mb 37f
7:40pm 8
mph
1024.7mb 37f
7:25pm 10
mph
1024.9mb 37f
7:10pm 13 14 mph 1025.1mb 37f
6:55pm 13 14 mph 1025mb 37f
6:40pm 10 11 mph 1025.6mb 37f
6:25pm 10 11 mph 1025.6mb 37f
6:10pm 10
mph
1025.7mb 37f
5:55pm 9 10 mph 1025.8mb 37f
5:40pm 10 13 mph 1026.1mb 37f
5:25pm 13 14 mph 1026.3mb 38f
5:10pm 13 14 mph 1026.4mb 37f
4:55pm 15 16 mph 1026.5mb 38f
4:40pm 15 16 mph 1026.6mb 38f
4:25pm 16 18 mph 1026.7mb 38f
4:10pm 16 17 mph 1026.6mb 38f
3:55pm 17 20 mph 1026.8mb 38f
3:40pm 17 18 mph 1026.6mb 38f
3:25pm 17 20 mph 1026.5mb 38f
3:10pm 14 18 mph 1027.1mb 37f
2:55pm 11
mph
1027.5mb 38f
2:40pm 9 11 mph 1027.7mb 39f
2:25pm 9
mph
1027.7mb 38f
2:10pm 7 9 mph 1027.8mb 39f
1:55pm 5 6 mph 1028.1mb 38f
1:40pm 6 7 mph 1028.1mb 38f
1:25pm 7 8 mph 1028.3mb 38f
1:10pm 6 7 mph 1028.3mb 39f
12:55pm 5 6 mph 1028.5mb 38f
12:40pm 3
mph
1028.8mb 37f
12:25pm 3 5 mph 1028.8mb 37f
12:10pm 3
mph
1028.9mb 37f
11:55am 3
mph
1028.9mb 38f
11:40am 2
mph
1029.4mb 38f
11:25am 2 3 mph 1029.5mb 40f
11:10am 3 5 mph 1029.7mb 38f
10:55am 5 6 mph 1029.7mb 37f
10:40am 5 6 mph 1029.8mb 38f
10:25am 2 3 mph 1029.7mb 39f
10:10am 2
mph
1029.5mb 38f
9:55am 2 3 mph 1029.5mb 36f
9:40am 2 3 mph 1029.5mb 37f
9:25am  -  1 mph 1029.3mb 38f
9:10am 2 3 mph 1029.3mb 36f
8:55am 3 5 mph 1029.2mb 34f
8:40am 5 6 mph 1029.1mb 33f
8:25am 5 6 mph 1029.2mb 32f
8:10am 6 7 mph 1028.9mb 30f
7:55am 5
mph
1028.9mb 31f
7:40am 5
mph
1029.1mb 32f
7:25am 3 5 mph 1029mb 30f
7:10am 5 6 mph 1029mb 29f
6:55am 6 7 mph 1028.8mb 28f
6:40am 7
mph
1028.7mb 27f
6:25am 6 7 mph 1028.8mb 28f
6:10am 7 8 mph 1029mb 27f
5:55am 7
mph
1029mb 28f
5:40am 6 7 mph 1028.9mb 28f
5:25am 5 6 mph 1028.6mb 28f
5:10am 5 6 mph 1028.3mb 28f
4:55am 5 6 mph 1028.3mb 28f
4:40am 5
mph
1028.2mb 28f
4:25am 5 6 mph 1028.1mb 29f
4:10am 6 7 mph 1027.8mb 29f
3:55am 5 6 mph 1027.8mb 29f
3:40am 5
mph
1027.8mb 29f
3:25am 3
mph
1027.9mb 30f
3:10am 2 3 mph 1028mb 30f
2:55am 2
mph
1028mb 29f
2:40am 2 3 mph 1028.2mb 30f
2:25am 3
mph
1028.1mb 30f
2:10am 2 3 mph 1027.9mb 30f
1:55am 2 3 mph 1027.9mb 30f
1:40am 5 6 mph 1027.8mb 30f
1:25am 6
mph
1027.9mb 30f
1:10am 6
mph
1028.1mb 31f
Tue 03/24 7:55pm 9 11 mph 1026.6mb 32f
7:40pm 10 11 mph 1026.4mb 32f
7:25pm 10 11 mph 1026.1mb 32f
7:10pm 10 11 mph 1025.9mb 32f
6:55pm 10 11 mph 1025.7mb 32f
6:40pm 11 13 mph 1025.7mb 32f
6:25pm 11 13 mph 1025.7mb 33f
6:10pm 13 15 mph 1025.6mb 32f
5:55pm 14 15 mph 1025.4mb 32f
5:40pm 15 16 mph 1025.3mb 32f
5:25pm 15 17 mph 1025.1mb 31f
5:10pm 16 17 mph 1025.1mb 31f
4:55pm 16 17 mph 1025mb 31f
4:40pm 15 17 mph 1025.1mb 31f
4:25pm 15 16 mph 1025mb 31f
4:10pm 13 15 mph 1025mb 32f
3:55pm 13 14 mph 1025mb 32f
3:40pm 10 13 mph 1025mb 32f
3:25pm 11 13 mph 1025mb 32f
3:10pm 11 13 mph 1025mb 32f
2:55pm 11 14 mph 1025.1mb 31f
2:40pm 11 13 mph 1025.1mb 32f
2:25pm 13 15 mph 1025.1mb 32f
2:10pm 10 11 mph 1025.1mb 32f
1:55pm 10 11 mph 1025.4mb 32f
1:40pm 10 13 mph 1025.4mb 31f
1:25pm 9 11 mph 1025.6mb 31f
1:10pm 9 10 mph 1025.6mb 30f
12:55pm 9 10 mph 1025.7mb 31f
12:40pm 9 11 mph 1025.9mb 30f
12:25pm 10 11 mph 1026.1mb 31f
12:10pm 9 11 mph 1026.2mb 30f
11:55am 7 8 mph 1026.2mb 31f
11:40am 7 8 mph 1026.3mb 31f
11:25am 6 7 mph 1026.3mb 31f
11:10am 5 6 mph 1026.5mb 29f
10:55am 3 5 mph 1026.6mb 32f
10:40am  -  1 mph 1026.6mb 32f
10:25am  -  2 mph 1026.6mb 31f
10:10am 3 5 mph 1026.6mb 31f
9:55am 6 9 mph 1026.5mb 29f
9:40am 9 11 mph 1026.2mb 29f
9:25am 9 10 mph 1026mb 28f
9:10am 9 13 mph 1025.9mb 27f
8:55am 10 13 mph 1025.7mb 27f
8:40am 11 14 mph 1025.7mb 26f
8:25am 11 15 mph 1025.7mb 25f
8:10am 13 17 mph 1025.6mb 25f
7:55am 14 16 mph 1025.4mb 24f
7:40am 14 18 mph 1025.3mb 24f
7:25am 13 16 mph 1025mb 24f
7:10am 13 16 mph 1024.9mb 23f
6:55am 13 16 mph 1024.6mb 23f
6:40am 13 16 mph 1024.6mb 24f
6:25am 14 16 mph 1024.5mb 24f
6:10am 15 17 mph 1024.2mb 24f
5:55am 16 21 mph 1024.2mb 24f
5:40am 17 21 mph 1024mb 24f
5:25am 17 21 mph 1024.4mb 25f
5:10am 17 22 mph 1024.2mb 25f
4:55am 18 22 mph 1024.1mb 25f
4:40am 18 23 mph 1023.9mb 25f
4:25am 18 21 mph 1023.9mb 25f
4:10am 16 18 mph 1023.7mb 25f
3:55am 15 17 mph 1023.8mb 25f
3:40am 14 16 mph 1023.9mb 25f
3:25am 10 14 mph 1023.9mb 25f
3:10am 11 14 mph 1023.6mb 25f
2:55am 10 13 mph 1023.5mb 24f
2:40am 10 13 mph 1023.6mb 24f
2:25am 9 11 mph 1023.5mb 24f
2:10am 9 13 mph 1023.4mb 24f
1:55am 9 11 mph 1023.4mb 25f
1:40am 6 8 mph 1023.7mb 25f
1:25am 7 8 mph 1023.4mb 25f
1:10am 6 9 mph 1023.2mb 25f